Time;durP1;ratioP1;P1;durP2;ratioP2;P2;SDS_P1;SDS_P2;PMS_P1;PMS_P2;Temp;Humidity;BMP_temperature;BMP_pressure;BME280_temperature;BME280_humidity;BME280_pressure;Samples;Min_cycle;Max_cycle;Signal;HPM_P1;HPM_P2
2021/10/06 00:00:08;;;;;;;12.63;5.22;;;;;;;9.24;61.33;98340.05;1679149;85;21083;-72
2021/10/06 00:02:39;;;;;;;11.22;4.78;;;;;;;9.25;61.20;98338.25;1686544;84;21009;-73
2021/10/06 00:05:07;;;;;;;13.32;4.87;;;;;;;9.27;60.94;98338.23;1681281;85;21044;-73
2021/10/06 00:07:33;;;;;;;10.13;5.28;;;;;;;9.27;60.59;98334.27;1679322;85;21064;-73
2021/10/06 00:10:00;;;;;;;9.63;5.50;;;;;;;9.28;60.65;98331.59;1679538;85;21584;-73
2021/10/06 00:12:27;;;;;;;10.55;4.80;;;;;;;9.28;60.56;98334.23;1691237;84;20967;-72
2021/10/06 00:14:53;;;;;;;10.20;4.80;;;;;;;9.27;60.49;98331.18;1681180;84;20984;-72
2021/10/06 00:17:20;;;;;;;9.68;5.12;;;;;;;9.27;60.18;98332.50;1681773;84;20962;-73
2021/10/06 00:19:46;;;;;;;15.50;5.15;;;;;;;9.26;60.28;98324.13;1675728;85;21424;-73
2021/10/06 00:22:13;;;;;;;6.28;4.80;;;;;;;9.23;60.33;98325.52;1681213;85;21028;-72
2021/10/06 00:24:39;;;;;;;12.93;6.28;;;;;;;9.23;60.25;98322.88;1678757;85;21008;-73
2021/10/06 00:27:06;;;;;;;8.18;4.90;;;;;;;9.20;60.15;98326.89;1665426;85;21445;-73
2021/10/06 00:29:33;;;;;;;11.97;5.05;;;;;;;9.19;60.15;98326.47;1671678;85;21061;-73
2021/10/06 00:31:59;;;;;;;9.28;5.33;;;;;;;9.17;60.07;98333.58;1674196;85;21074;-73
2021/10/06 00:34:25;;;;;;;11.97;4.87;;;;;;;9.13;60.09;98326.13;1670681;85;21445;-73
2021/10/06 00:36:52;;;;;;;9.45;5.03;;;;;;;9.10;60.04;98331.02;1734198;82;21159;-73
2021/10/06 00:39:18;;;;;;;7.47;4.90;;;;;;;9.07;60.09;98324.49;1748593;82;21053;-73
2021/10/06 00:41:47;;;;;;;10.60;5.95;;;;;;;9.04;60.12;98320.56;1725593;82;21006;-72
2021/10/06 00:44:20;;;;;;;9.78;5.30;;;;;;;9.02;60.21;98324.14;1688552;83;21388;-73
2021/10/06 00:46:48;;;;;;;9.00;4.92;;;;;;;8.99;60.07;98326.39;1676054;85;21066;-72
2021/10/06 00:49:17;;;;;;;7.58;4.42;;;;;;;8.98;60.08;98330.80;1689040;85;21471;-72
2021/10/06 00:51:44;;;;;;;7.28;4.97;;;;;;;8.96;60.06;98337.89;1675912;83;21059;-72
2021/10/06 00:54:11;;;;;;;9.60;5.12;;;;;;;8.94;60.15;98333.09;1697241;83;21363;-72
2021/10/06 00:56:38;;;;;;;8.90;4.87;;;;;;;8.92;60.28;98340.16;1695931;83;21048;-72
2021/10/06 00:59:04;;;;;;;9.00;5.00;;;;;;;8.91;60.13;98341.06;1695991;85;21040;-72
2021/10/06 01:01:31;;;;;;;12.15;4.87;;;;;;;8.91;60.12;98336.22;1695550;83;22146;-72
2021/10/06 01:03:58;;;;;;;12.15;4.72;;;;;;;8.90;60.06;98338.00;1688837;83;21056;-73
2021/10/06 01:06:25;;;;;;;5.47;4.62;;;;;;;8.89;60.02;98333.59;1668059;85;21028;-73
2021/10/06 01:08:51;;;;;;;8.78;4.83;;;;;;;8.88;59.87;98331.00;1667982;86;21080;-72
2021/10/06 01:11:19;;;;;;;9.53;5.03;;;;;;;8.90;59.83;98327.88;1668212;85;21177;-72
2021/10/06 01:13:45;;;;;;;10.13;5.60;;;;;;;8.91;59.72;98328.28;1695709;85;21388;-72
2021/10/06 01:16:12;;;;;;;12.82;4.83;;;;;;;8.92;59.73;98337.95;1700811;83;21016;-72
2021/10/06 01:18:38;;;;;;;7.72;4.80;;;;;;;8.91;59.67;98327.84;1727187;82;20988;-72
2021/10/06 01:21:16;;;;;;;10.85;5.58;;;;;;;8.92;59.59;98333.98;1693101;85;21409;-72
2021/10/06 01:23:46;;;;;;;9.70;5.37;;;;;;;8.93;59.55;98326.03;1691250;85;21075;-73
2021/10/06 01:26:18;;;;;;;7.35;4.53;;;;;;;8.92;59.58;98319.45;1675634;83;20985;-72
2021/10/06 01:28:46;;;;;;;9.43;4.70;;;;;;;8.92;59.57;98326.06;1706110;83;21036;-72
2021/10/06 01:31:13;;;;;;;12.00;5.08;;;;;;;8.90;59.56;98327.88;1727586;82;21008;-72
2021/10/06 01:33:40;;;;;;;6.92;4.65;;;;;;;8.89;59.45;98330.09;1717943;83;20985;-72
2021/10/06 01:36:07;;;;;;;9.70;4.72;;;;;;;8.90;59.54;98329.19;1720735;82;21007;-72
2021/10/06 01:38:34;;;;;;;7.58;4.90;;;;;;;8.88;59.50;98328.36;1728737;83;21020;-72
2021/10/06 01:41:00;;;;;;;8.20;4.85;;;;;;;8.84;59.57;98315.63;1752358;81;20972;-72
2021/10/06 01:43:26;;;;;;;11.90;5.03;;;;;;;8.82;59.77;98314.79;1715986;83;21043;-72
2021/10/06 01:45:53;;;;;;;12.28;5.40;;;;;;;8.79;59.70;98321.00;1728175;83;21430;-72
2021/10/06 01:48:20;;;;;;;8.30;4.80;;;;;;;8.79;59.77;98325.41;1758949;82;20989;-72
2021/10/06 01:50:47;;;;;;;10.80;4.70;;;;;;;8.75;59.92;98311.38;1687892;83;21059;-72
2021/10/06 01:53:16;;;;;;;10.60;5.20;;;;;;;8.71;60.02;98317.17;1682074;83;20962;-72
2021/10/06 01:55:44;;;;;;;11.08;5.03;;;;;;;8.70;60.01;98315.87;1686345;83;21032;-72
2021/10/06 01:58:15;;;;;;;10.85;4.97;;;;;;;8.67;60.05;98315.91;1729744;82;21007;-73
2021/10/06 02:00:47;;;;;;;8.88;5.47;;;;;;;8.62;60.25;98313.79;1740856;82;21030;-73
2021/10/06 02:03:14;;;;;;;10.35;5.70;;;;;;;8.55;60.33;98322.27;1724985;82;21053;-73
2021/10/06 02:05:40;;;;;;;13.48;5.92;;;;;;;8.49;60.80;98320.58;1732518;81;20992;-73
2021/10/06 02:08:09;;;;;;;9.93;6.00;;;;;;;8.47;60.51;98321.50;1728796;82;21005;-73
2021/10/06 02:10:38;;;;;;;11.12;6.40;;;;;;;8.43;60.54;98318.05;1709976;83;20990;-72
2021/10/06 02:13:05;;;;;;;9.50;5.25;;;;;;;8.39;60.63;98322.48;1684897;83;21012;-73
2021/10/06 02:15:32;;;;;;;10.38;5.55;;;;;;;8.36;60.59;98313.30;1705633;83;21083;-73
2021/10/06 02:17:58;;;;;;;15.45;7.12;;;;;;;8.32;60.79;98322.16;1698283;83;20995;-72
2021/10/06 02:20:25;;;;;;;11.48;6.10;;;;;;;8.26;61.66;98320.48;1706211;83;20999;-72
2021/10/06 02:22:52;;;;;;;10.85;5.75;;;;;;;8.23;61.06;98320.98;1705514;84;21488;-72
2021/10/06 02:25:20;;;;;;;11.90;5.42;;;;;;;8.20;61.40;98325.86;1714718;83;21019;-72
2021/10/06 02:27:47;;;;;;;12.70;6.08;;;;;;;8.18;61.13;98327.66;1722105;81;20984;-73
2021/10/06 02:30:16;;;;;;;10.43;5.20;;;;;;;8.16;61.26;98328.11;1731969;82;20948;-73
2021/10/06 02:32:43;;;;;;;11.83;5.62;;;;;;;8.13;61.24;98329.03;1691392;85;21097;-73
2021/10/06 02:35:11;;;;;;;14.83;5.78;;;;;;;8.11;61.19;98324.23;1716069;81;21014;-73
2021/10/06 02:37:39;;;;;;;10.65;5.47;;;;;;;8.08;61.32;98315.45;1714312;82;21072;-72
2021/10/06 02:40:10;;;;;;;16.55;5.97;;;;;;;8.03;61.98;98317.74;1735149;82;20944;-72
2021/10/06 02:42:38;;;;;;;12.25;5.47;;;;;;;8.02;61.58;98319.08;1707406;83;21000;-73
2021/10/06 02:45:08;;;;;;;12.60;5.47;;;;;;;7.97;61.86;98319.13;1741595;81;20993;-73
2021/10/06 02:47:34;;;;;;;9.23;5.58;;;;;;;7.92;61.78;98320.52;1695299;83;21093;-73
2021/10/06 02:50:01;;;;;;;9.95;5.80;;;;;;;7.91;61.97;98320.53;1724473;82;22019;-72
2021/10/06 02:52:27;;;;;;;9.40;5.72;;;;;;;7.88;61.93;98316.17;1676978;84;21043;-72
2021/10/06 02:54:54;;;;;;;10.50;6.37;;;;;;;7.88;61.85;98319.25;1730671;82;20949;-73
2021/10/06 02:57:20;;;;;;;14.55;5.37;;;;;;;7.87;62.05;98318.39;1737239;82;21039;-72
2021/10/06 02:59:47;;;;;;;10.95;5.95;;;;;;;7.86;62.08;98317.09;1729937;82;21107;-72
2021/10/06 03:02:13;;;;;;;9.75;5.30;;;;;;;7.86;62.03;98319.73;1727838;82;20972;-72
2021/10/06 03:04:40;;;;;;;11.35;5.70;;;;;;;7.86;62.11;98319.30;1744671;82;21013;-72
2021/10/06 03:07:06;;;;;;;15.05;6.05;;;;;;;7.86;62.06;98316.66;1723872;83;21053;-72
2021/10/06 03:09:33;;;;;;;10.68;5.20;;;;;;;7.84;62.47;98310.97;1723171;83;21427;-72
2021/10/06 03:11:59;;;;;;;15.10;5.70;;;;;;;7.83;62.03;98308.77;1737752;82;21004;-72
2021/10/06 03:14:26;;;;;;;16.07;5.58;;;;;;;7.81;62.29;98314.52;1749560;82;20956;-72
2021/10/06 03:16:53;;;;;;;9.48;5.17;;;;;;;7.81;62.41;98311.89;1724084;83;20996;-72
2021/10/06 03:19:19;;;;;;;11.83;4.75;;;;;;;7.82;62.36;98308.34;1721051;82;20995;-72
2021/10/06 03:21:46;;;;;;;10.35;5.08;;;;;;;7.81;62.17;98310.56;1729629;82;21477;-73
2021/10/06 03:24:12;;;;;;;13.20;4.90;;;;;;;7.80;62.22;98303.52;1725338;82;21054;-72
2021/10/06 03:26:38;;;;;;;12.03;4.92;;;;;;;7.76;62.34;98302.70;1725254;81;21004;-73
2021/10/06 03:29:05;;;;;;;8.33;5.00;;;;;;;7.74;62.22;98315.05;1741667;82;21446;-73
2021/10/06 03:31:32;;;;;;;15.35;5.50;;;;;;;7.71;62.24;98308.48;1724325;82;21021;-72
2021/10/06 03:33:59;;;;;;;9.15;5.28;;;;;;;7.70;62.27;98294.87;1721593;83;21014;-73
2021/10/06 03:36:27;;;;;;;7.55;4.80;;;;;;;7.72;62.25;98310.22;1713667;83;21018;-72
2021/10/06 03:38:54;;;;;;;8.85;5.00;;;;;;;7.71;62.28;98304.95;1715808;82;21000;-72
2021/10/06 03:41:20;;;;;;;9.60;5.25;;;;;;;7.70;62.37;98312.02;1687056;83;21440;-73
2021/10/06 03:43:47;;;;;;;13.00;5.20;;;;;;;7.70;62.46;98305.86;1700998;84;21049;-72
2021/10/06 03:46:14;;;;;;;10.40;5.58;;;;;;;7.69;62.22;98301.05;1716062;83;21056;-73
2021/10/06 03:48:41;;;;;;;10.15;5.05;;;;;;;7.67;62.28;98313.36;1703685;84;22086;-72
2021/10/06 03:51:08;;;;;;;10.85;5.22;;;;;;;7.63;62.26;98307.26;1697153;84;21027;-72
2021/10/06 03:53:34;;;;;;;14.83;5.47;;;;;;;7.62;62.45;98304.64;1707664;84;21023;-72
2021/10/06 03:56:01;;;;;;;14.03;6.33;;;;;;;7.59;62.31;98309.50;1690321;84;21001;-72
2021/10/06 03:58:27;;;;;;;9.40;5.25;;;;;;;7.55;62.99;98306.94;1696323;84;21022;-73
2021/10/06 04:00:54;;;;;;;12.28;5.40;;;;;;;7.52;62.34;98310.48;1711983;83;21057;-72
2021/10/06 04:03:21;;;;;;;10.10;5.03;;;;;;;7.49;62.50;98316.67;1703351;83;21030;-72
2021/10/06 04:05:48;;;;;;;10.88;5.62;;;;;;;7.44;62.60;98323.77;1711309;83;21134;-72
2021/10/06 04:08:17;;;;;;;8.63;5.12;;;;;;;7.40;62.67;98324.69;1705974;83;20994;-72
2021/10/06 04:10:44;;;;;;;12.00;6.00;;;;;;;7.36;62.68;98323.83;1719341;83;21010;-72
2021/10/06 04:13:10;;;;;;;10.30;5.22;;;;;;;7.33;62.59;98319.92;1703578;83;21028;-72
2021/10/06 04:15:37;;;;;;;10.82;5.30;;;;;;;7.30;63.16;98313.36;1701059;84;21213;-72
2021/10/06 04:18:05;;;;;;;12.47;5.35;;;;;;;7.27;62.90;98309.45;1728335;83;20949;-72
2021/10/06 04:20:34;;;;;;;9.85;5.55;;;;;;;7.24;63.16;98309.48;1735746;82;21089;-72
2021/10/06 04:23:00;;;;;;;11.70;5.83;;;;;;;7.21;62.93;98315.66;1693137;83;21014;-72
2021/10/06 04:25:27;;;;;;;9.13;5.40;;;;;;;7.20;63.27;98313.92;1693224;83;20994;-72
2021/10/06 04:27:53;;;;;;;13.50;5.40;;;;;;;7.20;62.99;98314.35;1688808;84;20991;-72
2021/10/06 04:30:20;;;;;;;11.48;5.20;;;;;;;7.20;63.03;98316.55;1697958;84;21077;-72
2021/10/06 04:32:46;;;;;;;11.73;4.62;;;;;;;7.20;62.79;98307.33;1693218;84;21506;-72
2021/10/06 04:35:13;;;;;;;13.93;5.35;;;;;;;7.21;62.77;98307.75;1688605;83;21021;-72
2021/10/06 04:37:40;;;;;;;11.05;5.35;;;;;;;7.19;62.87;98302.92;1694462;84;21494;-72
2021/10/06 04:40:10;;;;;;;8.45;4.92;;;;;;;7.19;62.72;98302.92;1694095;83;21016;-72
2021/10/06 04:42:36;;;;;;;10.80;5.92;;;;;;;7.21;62.53;98298.52;1684567;83;21086;-72
2021/10/06 04:45:04;;;;;;;10.20;5.12;;;;;;;7.24;62.47;98305.09;1664806;83;21047;-72
2021/10/06 04:47:31;;;;;;;11.60;5.85;;;;;;;7.24;62.46;98302.45;1665048;86;21065;-72
2021/10/06 04:49:57;;;;;;;11.35;5.40;;;;;;;7.29;62.36;98291.84;1670091;83;21105;-72
2021/10/06 04:52:24;;;;;;;12.43;5.67;;;;;;;7.33;62.08;98286.97;1689853;83;21043;-72
2021/10/06 04:54:52;;;;;;;8.48;5.15;;;;;;;7.36;61.98;98296.61;1683922;83;20949;-72
2021/10/06 04:57:20;;;;;;;11.57;5.12;;;;;;;7.37;61.95;98290.44;1693203;83;21430;-72
2021/10/06 04:59:46;;;;;;;10.88;5.10;;;;;;;7.39;61.97;98287.32;1702589;83;21530;-72
2021/10/06 05:02:13;;;;;;;10.35;5.87;;;;;;;7.39;62.26;98295.23;1675552;83;21032;-72
2021/10/06 05:04:39;;;;;;;8.55;5.10;;;;;;;7.39;62.14;98297.87;1671291;83;21015;-72
2021/10/06 05:07:07;;;;;;;10.58;5.45;;;;;;;7.39;62.25;98291.27;1722783;83;21008;-72
2021/10/06 05:09:34;;;;;;;10.95;5.05;;;;;;;7.44;62.22;98292.55;1751300;82;21103;-72
2021/10/06 05:12:00;;;;;;;8.33;5.00;;;;;;;7.46;62.94;98292.08;1732018;83;20993;-72
2021/10/06 05:14:28;;;;;;;9.75;5.60;;;;;;;7.53;62.64;98290.66;1722014;82;21058;-72
2021/10/06 05:16:55;;;;;;;10.70;4.75;;;;;;;7.57;62.28;98299.44;1686808;82;21376;-72
2021/10/06 05:19:22;;;;;;;11.80;4.92;;;;;;;7.61;62.12;98297.62;1689687;83;20999;-72
2021/10/06 05:21:50;;;;;;;8.43;4.20;;;;;;;7.65;61.89;98291.42;1738593;82;21003;-73
2021/10/06 05:24:17;;;;;;;11.73;6.08;;;;;;;7.68;62.11;98288.72;1726143;83;21120;-73
2021/10/06 05:26:43;;;;;;;13.38;5.45;;;;;;;7.72;61.90;98292.22;1670534;84;21484;-72
2021/10/06 05:29:13;;;;;;;6.70;4.20;;;;;;;7.79;61.41;98292.11;1691394;83;21545;-73
2021/10/06 05:31:41;;;;;;;10.23;5.00;;;;;;;7.89;60.66;98279.65;1686477;84;21020;-72
2021/10/06 05:34:08;;;;;;;13.95;6.83;;;;;;;7.98;60.24;98273.39;1669248;83;21452;-73
2021/10/06 05:36:35;;;;;;;13.45;6.20;;;;;;;8.08;59.75;98278.50;1700041;83;21040;-73
2021/10/06 05:39:01;;;;;;;10.90;4.05;;;;;;;8.15;59.24;98283.66;1748508;81;21152;-72
2021/10/06 05:41:27;;;;;;;11.78;4.53;;;;;;;8.22;59.02;98282.27;1700147;83;21398;-72
2021/10/06 05:43:54;;;;;;;9.48;4.20;;;;;;;8.27;59.17;98274.69;1693030;85;21004;-73
2021/10/06 05:46:21;;;;;;;12.47;4.08;;;;;;;8.34;59.04;98279.89;1693252;83;21030;-73
2021/10/06 05:48:48;;;;;;;7.47;3.92;;;;;;;8.41;58.52;98287.69;1684763;84;21011;-72
2021/10/06 05:51:14;;;;;;;5.50;3.90;;;;;;;8.48;57.62;98295.06;1717684;82;21023;-72
2021/10/06 05:53:41;;;;;;;5.40;4.25;;;;;;;8.51;58.17;98295.00;1735480;82;20988;-72
2021/10/06 05:56:07;;;;;;;10.00;4.25;;;;;;;8.56;58.44;98297.62;1704818;83;21055;-72
2021/10/06 05:58:33;;;;;;;15.03;5.25;;;;;;;8.60;58.30;98315.16;1693450;83;20992;-72
2021/10/06 06:01:00;;;;;;;8.33;5.10;;;;;;;8.63;58.37;98313.77;1692239;83;20961;-73
2021/10/06 06:03:27;;;;;;;11.80;4.87;;;;;;;8.65;58.10;98310.67;1676054;85;21499;-72
2021/10/06 06:05:53;;;;;;;12.78;4.40;;;;;;;8.68;58.35;98310.60;1699795;83;20997;-72
2021/10/06 06:08:20;;;;;;;9.35;4.85;;;;;;;8.73;58.37;98322.44;1702134;83;21014;-73
2021/10/06 06:10:46;;;;;;;10.75;4.75;;;;;;;8.76;58.45;98322.36;1665576;86;21054;-72
2021/10/06 06:13:13;;;;;;;13.13;6.12;;;;;;;8.81;58.55;98323.63;1676340;83;21071;-72
2021/10/06 06:15:40;;;;;;;8.88;5.25;;;;;;;8.84;58.53;98318.27;1691663;84;21010;-72
2021/10/06 06:18:06;;;;;;;14.38;5.15;;;;;;;8.88;58.48;98302.78;1692561;85;21019;-73
2021/10/06 06:20:33;;;;;;;6.50;4.78;;;;;;;8.93;58.29;98317.25;1715025;83;21028;-72
2021/10/06 06:22:59;;;;;;;8.45;4.53;;;;;;;8.96;58.08;98307.48;1724015;82;21000;-72
2021/10/06 06:25:26;;;;;;;8.93;4.40;;;;;;;9.01;57.78;98316.64;1709961;82;21000;-72
2021/10/06 06:27:52;;;;;;;10.18;5.35;;;;;;;9.07;58.13;98315.67;1711450;82;21044;-73
2021/10/06 06:30:19;;;;;;;7.17;4.40;;;;;;;9.14;57.97;98318.64;1690395;83;21012;-72
2021/10/06 06:32:45;;;;;;;7.92;4.50;;;;;;;9.22;57.67;98323.31;1727266;82;21054;-72
2021/10/06 06:35:12;;;;;;;6.33;4.05;;;;;;;9.30;57.35;98316.55;1685486;84;21016;-72
2021/10/06 06:37:39;;;;;;;6.75;4.10;;;;;;;9.40;56.79;98325.64;1681669;84;21112;-72
2021/10/06 06:40:08;;;;;;;4.80;3.72;;;;;;;9.47;56.51;98328.13;1654771;85;21427;-72
2021/10/06 06:42:34;;;;;;;9.25;3.75;;;;;;;9.54;56.38;98324.06;1695127;83;21437;-72
2021/10/06 06:45:03;;;;;;;7.20;3.80;;;;;;;9.60;55.84;98325.25;1701168;83;21033;-72
2021/10/06 06:47:29;;;;;;;6.45;3.72;;;;;;;9.67;56.16;98333.95;1704638;84;21403;-72
2021/10/06 06:49:56;;;;;;;6.25;3.80;;;;;;;9.71;55.61;98332.52;1717402;83;20992;-71
2021/10/06 06:52:23;;;;;;;6.90;3.95;;;;;;;9.77;55.79;98330.20;1692752;85;21064;-72
2021/10/06 06:54:49;;;;;;;6.67;4.12;;;;;;;9.83;55.68;98335.36;1667587;85;21050;-72
2021/10/06 06:57:16;;;;;;;8.55;3.58;;;;;;;9.89;55.18;98331.25;1729194;82;20990;-73
2021/10/06 06:59:42;;;;;;;7.65;4.08;;;;;;;9.98;54.43;98322.70;1705293;83;21546;-72
2021/10/06 07:02:12;;;;;;;8.60;4.22;;;;;;;10.07;55.03;98321.17;1693792;83;20980;-73
2021/10/06 07:04:37;;;;;;;7.90;3.75;;;;;;;10.15;54.86;98317.02;1703813;83;20993;-73
2021/10/06 07:07:05;;;;;;;7.75;3.50;;;;;;;10.24;54.30;98325.20;1698925;83;21040;-73
2021/10/06 07:09:34;;;;;;;8.13;3.58;;;;;;;10.30;54.17;98326.41;1663544;86;21528;-73
2021/10/06 07:12:00;;;;;;;6.53;4.00;;;;;;;10.34;53.79;98321.44;1677968;84;21146;-73
2021/10/06 07:14:28;;;;;;;5.55;3.22;;;;;;;10.39;53.98;98321.34;1678209;85;21018;-73
2021/10/06 07:16:57;;;;;;;5.72;3.60;;;;;;;10.47;54.04;98331.80;1684716;84;21052;-73
2021/10/06 07:19:23;;;;;;;8.10;3.77;;;;;;;10.55;53.57;98325.86;1723825;83;21076;-73
2021/10/06 07:21:50;;;;;;;10.72;3.67;;;;;;;10.62;53.39;98328.77;1712163;83;20986;-73
2021/10/06 07:24:16;;;;;;;8.80;4.17;;;;;;;10.69;52.46;98326.84;1706169;84;21484;-73
2021/10/06 07:26:46;;;;;;;7.25;3.70;;;;;;;10.76;53.09;98321.78;1706733;82;21046;-73
2021/10/06 07:29:13;;;;;;;6.90;3.58;;;;;;;10.86;53.08;98325.53;1723917;82;21068;-73
2021/10/06 07:31:39;;;;;;;11.48;4.00;;;;;;;10.93;52.15;98309.90;1713364;83;21405;-73
2021/10/06 07:34:06;;;;;;;6.75;3.55;;;;;;;11.00;51.74;98311.47;1707151;84;20991;-73
2021/10/06 07:36:33;;;;;;;15.43;3.95;;;;;;;11.08;51.83;98317.89;1717679;83;21434;-73
2021/10/06 07:39:00;;;;;;;5.65;3.65;;;;;;;11.17;51.02;98319.45;1722275;83;21013;-73
2021/10/06 07:41:27;;;;;;;6.20;3.45;;;;;;;11.24;51.24;98324.14;1707828;83;21030;-73
2021/10/06 07:43:56;;;;;;;6.83;3.62;;;;;;;11.33;51.51;98336.69;1722756;83;21007;-73
2021/10/06 07:46:22;;;;;;;8.20;4.00;;;;;;;11.42;51.54;98332.05;1732697;82;21026;-73
2021/10/06 07:48:50;;;;;;;4.80;3.30;;;;;;;11.50;50.92;98339.32;1726627;82;21001;-73
2021/10/06 07:51:18;;;;;;;7.70;3.85;;;;;;;11.57;50.76;98335.59;1700861;83;21524;-73
2021/10/06 07:53:45;;;;;;;6.85;4.67;;;;;;;11.66;49.66;98334.94;1722817;83;20969;-73
2021/10/06 07:56:12;;;;;;;7.85;3.30;;;;;;;11.72;50.58;98336.93;1721932;83;21010;-74
2021/10/06 07:58:38;;;;;;;9.58;3.80;;;;;;;11.78;49.69;98328.37;1720671;83;22246;-74
2021/10/06 08:01:05;;;;;;;6.17;3.45;;;;;;;11.83;50.15;98341.09;1721659;83;21007;-74
2021/10/06 08:03:31;;;;;;;7.72;3.37;;;;;;;11.87;49.32;98335.62;1693119;84;21021;-74
2021/10/06 08:05:58;;;;;;;7.72;3.65;;;;;;;11.92;48.84;98341.27;1701076;83;20988;-74
2021/10/06 08:08:26;;;;;;;5.83;3.67;;;;;;;11.95;48.69;98334.52;1731816;83;21104;-74
2021/10/06 08:10:59;;;;;;;7.20;4.10;;;;;;;11.97;48.45;98327.39;1731942;81;21034;-74
2021/10/06 08:13:26;;;;;;;10.08;3.40;;;;;;;12.00;48.10;98314.02;1683783;85;21453;-74
2021/10/06 08:15:55;;;;;;;7.78;3.87;;;;;;;12.06;48.32;98315.64;1701314;82;20995;-74
2021/10/06 08:18:21;;;;;;;6.17;3.58;;;;;;;12.10;48.57;98318.17;1731344;83;21103;-74
2021/10/06 08:20:51;;;;;;;8.18;3.60;;;;;;;12.17;48.72;98316.20;1743986;82;20972;-74
2021/10/06 08:23:21;;;;;;;9.10;3.60;;;;;;;12.22;48.43;98320.03;1722912;83;21019;-73
2021/10/06 08:25:51;;;;;;;6.37;3.67;;;;;;;12.25;47.40;98322.13;1684789;83;21005;-74
2021/10/06 08:28:22;;;;;;;6.30;3.70;;;;;;;12.28;47.64;98316.73;1656593;85;21085;-74
2021/10/06 08:30:52;;;;;;;7.45;4.03;;;;;;;12.32;47.69;98311.30;1692856;82;21410;-74
2021/10/06 08:33:22;;;;;;;22.82;12.37;;;;;;;12.37;48.17;98316.88;1720883;82;21033;-74
2021/10/06 08:35:48;;;;;;;8.08;3.65;;;;;;;12.45;48.04;98324.61;1749323;82;21032;-74
2021/10/06 08:38:17;;;;;;;6.25;3.60;;;;;;;12.50;47.75;98321.34;1754229;81;21103;-73
2021/10/06 08:40:44;;;;;;;6.45;3.83;;;;;;;12.57;47.95;98316.70;1750984;82;21431;-74
2021/10/06 08:43:12;;;;;;;7.70;3.65;;;;;;;12.64;47.64;98304.08;1723776;81;21023;-73
2021/10/06 08:45:40;;;;;;;8.98;3.87;;;;;;;12.71;47.69;98302.94;1727061;82;21063;-73
2021/10/06 08:48:09;;;;;;;7.00;3.85;;;;;;;12.78;48.01;98299.17;1713789;83;21031;-74
2021/10/06 08:50:38;;;;;;;7.47;4.05;;;;;;;12.85;47.53;98293.64;1746848;81;21051;-73
2021/10/06 08:53:05;;;;;;;9.55;3.98;;;;;;;12.90;48.01;98294.34;1724182;82;21064;-73
2021/10/06 08:55:34;;;;;;;6.08;4.03;;;;;;;12.96;48.28;98287.51;1707141;84;21029;-73
2021/10/06 08:58:05;;;;;;;8.55;3.52;;;;;;;12.99;48.23;98286.05;1707316;84;21029;-73
2021/10/06 09:00:53;;;;;;;6.15;3.72;;;;;;;13.05;48.48;98284.50;1733637;83;20989;-74
2021/10/06 09:03:33;;;;;;;9.75;4.45;;;;;;;13.13;48.38;98280.72;1736647;83;21009;-73
2021/10/06 09:06:10;;;;;;;6.08;3.40;;;;;;;13.21;47.92;98290.63;1737030;83;21044;-73
2021/10/06 09:08:39;;;;;;;8.65;4.30;;;;;;;13.29;48.34;98293.02;1712389;83;20991;-72
2021/10/06 09:11:07;;;;;;;8.95;4.10;;;;;;;13.35;47.77;98290.12;1678965;84;21015;-73
2021/10/06 09:13:38;;;;;;;5.00;3.75;;;;;;;13.42;47.48;98298.77;1718930;82;21443;-71
2021/10/06 09:16:06;;;;;;;7.87;3.42;;;;;;;13.48;47.45;98292.36;1747366;81;20956;-73
2021/10/06 09:18:34;;;;;;;6.60;3.77;;;;;;;13.55;47.56;98303.20;1748696;81;20992;-72
2021/10/06 09:21:08;;;;;;;6.30;3.90;;;;;;;13.61;47.43;98303.45;1758299;81;21031;-72
2021/10/06 09:23:40;;;;;;;9.50;4.45;;;;;;;13.64;47.33;98298.88;1743237;81;21409;-72
2021/10/06 09:26:11;;;;;;;10.75;4.00;;;;;;;13.70;47.58;98295.98;1733943;82;20988;-72
2021/10/06 09:28:42;;;;;;;5.30;3.42;;;;;;;13.76;47.76;98293.55;1712190;83;21480;-73
2021/10/06 09:31:16;;;;;;;9.13;4.22;;;;;;;13.80;47.45;98282.31;1705076;84;21055;-73
2021/10/06 09:33:53;;;;;;;6.42;3.80;;;;;;;13.88;47.92;98284.68;1690133;84;21051;-74
2021/10/06 09:36:31;;;;;;;6.28;3.33;;;;;;;13.96;46.95;98283.93;1689200;84;20949;-73
2021/10/06 09:39:08;;;;;;;9.80;3.62;;;;;;;14.01;47.53;98275.74;1692745;83;21038;-73
2021/10/06 09:41:46;;;;;;;9.08;3.45;;;;;;;14.10;47.03;98278.05;1687491;84;20975;-73
2021/10/06 09:44:22;;;;;;;10.23;3.37;;;;;;;14.18;46.84;98276.41;1688263;85;21457;-75
2021/10/06 09:46:59;;;;;;;7.65;3.85;;;;;;;14.25;46.69;98274.77;1688246;85;21012;-73
2021/10/06 09:49:38;;;;;;;6.40;3.62;;;;;;;14.33;46.45;98274.45;1661652;85;20975;-73
2021/10/06 09:52:26;;;;;;;14.18;4.00;;;;;;;14.47;46.63;98267.70;1690710;84;21069;-73
2021/10/06 09:55:02;;;;;;;6.75;3.60;;;;;;;14.58;46.70;98264.59;1692947;85;21172;-73
2021/10/06 09:57:36;;;;;;;8.95;4.05;;;;;;;14.71;46.31;98260.48;1692980;85;21061;-73
2021/10/06 10:00:13;;;;;;;29.77;17.85;;;;;;;14.83;46.45;98267.14;1678804;85;21045;-73
2021/10/06 10:02:40;;;;;;;9.58;3.50;;;;;;;14.94;46.04;98267.14;1660509;85;21028;-73
2021/10/06 10:05:09;;;;;;;5.85;3.30;;;;;;;15.00;45.15;98262.38;1675874;85;21470;-73
2021/10/06 10:07:36;;;;;;;5.33;3.22;;;;;;;15.06;45.25;98258.59;1685280;85;21016;-73
2021/10/06 10:10:07;;;;;;;7.35;3.10;;;;;;;15.22;45.06;98260.58;1694095;85;21076;-74
2021/10/06 10:12:34;;;;;;;5.55;3.40;;;;;;;15.31;44.75;98257.05;1693149;85;21032;-73
2021/10/06 10:15:02;;;;;;;7.35;3.30;;;;;;;15.41;44.24;98249.95;1650172;85;21465;-74
2021/10/06 10:17:29;;;;;;;7.87;3.05;;;;;;;15.51;44.78;98259.73;1686327;85;21010;-73
2021/10/06 10:20:00;;;;;;;6.62;3.17;;;;;;;15.63;43.92;98251.62;1676155;85;21049;-74
2021/10/06 10:22:34;;;;;;;7.78;3.08;;;;;;;15.74;43.97;98252.48;1682274;85;21079;-73
2021/10/06 10:25:25;;;;;;;5.58;3.20;;;;;;;15.84;43.10;98260.00;1665968;85;21422;-73
2021/10/06 10:28:06;;;;;;;5.75;2.98;;;;;;;16.13;42.74;98246.66;1681943;85;21011;-73
2021/10/06 10:30:36;;;;;;;5.45;3.17;;;;;;;17.05;42.15;98242.14;1708478;83;22095;-73
2021/10/06 10:33:04;;;;;;;5.42;3.10;;;;;;;18.06;40.02;98247.48;1695384;84;21461;-72
2021/10/06 10:35:45;;;;;;;8.53;3.15;;;;;;;19.03;38.99;98242.81;1670357;85;21055;-73
2021/10/06 10:38:15;;;;;;;7.85;3.25;;;;;;;19.97;37.34;98230.36;1687495;85;21392;-72
2021/10/06 10:40:48;;;;;;;4.60;2.70;;;;;;;21.04;34.76;98241.33;1720162;83;21068;-72
2021/10/06 10:43:24;;;;;;;7.75;2.92;;;;;;;21.80;33.88;98233.86;1713935;83;21010;-72
2021/10/06 10:46:07;;;;;;;4.62;3.02;;;;;;;22.52;31.00;98226.80;1692386;84;21037;-72
2021/10/06 10:49:00;;;;;;;6.35;3.85;;;;;;;23.24;29.84;98218.20;1685675;83;21022;-72
2021/10/06 10:51:58;;;;;;;8.18;4.65;;;;;;;23.66;28.61;98219.00;1713611;83;21134;-73
2021/10/06 10:54:39;;;;;;;6.55;3.10;;;;;;;23.85;26.96;98193.16;1720291;83;21008;-73
2021/10/06 10:57:29;;;;;;;5.87;2.80;;;;;;;24.47;26.95;98196.73;1720282;83;21031;-73
2021/10/06 10:59:58;;;;;;;4.47;3.02;;;;;;;24.95;25.65;98192.70;1715352;83;20978;-73
2021/10/06 11:02:41;;;;;;;2.87;2.65;;;;;;;25.62;26.32;98188.81;1691858;85;21025;-73
2021/10/06 11:05:10;;;;;;;5.97;3.12;;;;;;;25.90;25.62;98191.25;1692217;84;21011;-73
2021/10/06 11:07:51;;;;;;;4.40;2.98;;;;;;;25.73;24.75;98188.70;1690075;83;20986;-73
2021/10/06 11:10:26;;;;;;;4.62;3.00;;;;;;;26.23;26.59;98194.62;1681386;85;20995;-72
2021/10/06 11:13:05;;;;;;;5.95;3.17;;;;;;;26.91;25.93;98186.65;1699402;83;21411;-72
2021/10/06 11:15:34;;;;;;;5.28;3.00;;;;;;;27.14;24.61;98179.53;1720800;83;21087;-72
2021/10/06 11:18:15;;;;;;;7.12;3.17;;;;;;;27.45;24.46;98175.72;1720471;83;20969;-73
2021/10/06 11:20:50;;;;;;;6.50;3.10;;;;;;;27.61;23.50;98181.41;1720888;83;21573;-72
2021/10/06 11:23:40;;;;;;;5.47;2.40;;;;;;;27.09;22.52;98171.83;1720721;83;21020;-72
2021/10/06 11:26:20;;;;;;;4.05;3.08;;;;;;;27.57;23.24;98172.31;1680962;85;21018;-72
2021/10/06 11:28:50;;;;;;;4.90;2.80;;;;;;;27.95;23.25;98170.43;1682554;83;21018;-72
2021/10/06 11:31:28;;;;;;;9.50;3.58;;;;;;;27.94;22.43;98155.95;1682000;83;21081;-72
2021/10/06 11:33:57;;;;;;;3.12;2.83;;;;;;;27.07;23.54;98160.73;1692118;85;21024;-73
2021/10/06 11:36:28;;;;;;;3.92;2.45;;;;;;;26.41;23.44;98167.28;1709407;83;20984;-72
2021/10/06 11:39:08;;;;;;;5.17;3.10;;;;;;;25.82;24.56;98166.64;1716893;83;21417;-72
2021/10/06 11:41:42;;;;;;;6.80;2.90;;;;;;;25.45;24.28;98168.05;1689785;85;21028;-72